createdAt,value
2022-11-16T00:02:14.883Z,99425.88
2022-11-16T00:04:43.877Z,99425.88
2022-11-16T00:07:13.298Z,99423.19
2022-11-16T00:09:42.040Z,99416.19
2022-11-16T00:12:12.946Z,99421.28
2022-11-16T00:14:43.104Z,99415.25
2022-11-16T00:17:12.172Z,99416.94
2022-11-16T00:19:41.842Z,99427.34
2022-11-16T00:22:11.338Z,99416.06
2022-11-16T00:24:40.187Z,99418.75
2022-11-16T00:27:09.298Z,99413.59
2022-11-16T00:29:38.069Z,99418.00
2022-11-16T00:32:08.213Z,99411.06
2022-11-16T00:34:38.208Z,99417.16
2022-11-16T00:37:07.113Z,99416.16
2022-11-16T00:39:36.042Z,99416.16
2022-11-16T00:42:04.863Z,99415.97
2022-11-16T00:44:33.992Z,99410.03
2022-11-16T00:47:03.686Z,99404.94
2022-11-16T00:49:35.013Z,99413.59
2022-11-16T00:52:04.025Z,99410.13
2022-11-16T00:54:33.769Z,99402.47
2022-11-16T00:57:02.623Z,99399.78
2022-11-16T00:59:31.771Z,99404.19
2022-11-16T01:02:02.327Z,99409.56
2022-11-16T01:04:31.546Z,99404.31
2022-11-16T01:07:02.888Z,99408.69
2022-11-16T01:09:31.853Z,99401.59
2022-11-16T01:12:10.202Z,99409.50
2022-11-16T01:14:40.418Z,99411.41
2022-11-16T01:17:09.877Z,99407.28
2022-11-16T01:19:40.256Z,99413.34
2022-11-16T01:22:12.583Z,99416.75
2022-11-16T01:24:41.672Z,99409.81
2022-11-16T01:27:10.366Z,99404.56
2022-11-16T01:29:41.737Z,99396.69
2022-11-16T01:32:12.041Z,99399.31
2022-11-16T01:34:41.299Z,99391.56
2022-11-16T01:37:24.631Z,99390.84
2022-11-16T01:39:53.267Z,99386.47
2022-11-16T01:42:23.973Z,99386.59
2022-11-16T01:45:06.384Z,99381.28
2022-11-16T01:47:35.384Z,99369.06
2022-11-16T01:50:10.510Z,99366.38
2022-11-16T01:52:48.963Z,99360.47
2022-11-16T01:55:20.211Z,99357.00
2022-11-16T01:58:29.036Z,99357.75
2022-11-16T02:01:04.108Z,99350.88
2022-11-16T02:03:41.969Z,99353.38
2022-11-16T02:06:40.982Z,99346.41
2022-11-16T02:09:52.917Z,99346.41
2022-11-16T02:12:54.552Z,99361.03
2022-11-16T02:15:34.880Z,99355.06
2022-11-16T02:18:26.444Z,99349.88
2022-11-16T02:21:08.991Z,99339.56
2022-11-16T02:24:15.960Z,99333.53
2022-11-16T02:27:13.899Z,99335.22
2022-11-16T02:29:47.461Z,99336.03
2022-11-16T02:32:20.557Z,99332.56
2022-11-16T02:34:53.619Z,99326.50
2022-11-16T02:37:24.931Z,99330.78
2022-11-16T02:39:57.927Z,99324.78
2022-11-16T02:42:34.182Z,99323.91
2022-11-16T02:45:13.516Z,99312.63
2022-11-16T02:47:47.466Z,99317.94
2022-11-16T02:50:19.824Z,99311.81
2022-11-16T02:52:48.812Z,99311.75
2022-11-16T02:55:17.849Z,99309.88
2022-11-16T02:57:53.004Z,99301.22
2022-11-16T03:00:26.867Z,99296.81
2022-11-16T03:03:07.935Z,99295.81
2022-11-16T03:05:40.701Z,99301.94
2022-11-16T03:08:17.900Z,99295.19
2022-11-16T03:11:08.462Z,99286.47
2022-11-16T03:13:38.768Z,99282.25
2022-11-16T03:16:14.831Z,99281.31
2022-11-16T03:18:47.532Z,99288.22
2022-11-16T03:21:26.581Z,99279.75
2022-11-16T03:23:55.813Z,99278.91
2022-11-16T03:26:30.387Z,99267.56
2022-11-16T03:29:03.114Z,99272.75
2022-11-16T03:31:41.099Z,99266.75
2022-11-16T03:34:17.359Z,99271.13
2022-11-16T03:36:49.505Z,99263.19
2022-11-16T03:39:24.770Z,99262.16
2022-11-16T03:41:54.658Z,99260.47
2022-11-16T03:44:23.576Z,99269.97
2022-11-16T03:46:54.134Z,99263.84
2022-11-16T03:49:25.893Z,99270.72
2022-11-16T03:51:56.050Z,99267.41
2022-11-16T03:54:25.075Z,99272.81
2022-11-16T03:56:53.738Z,99277.16
2022-11-16T03:59:22.868Z,99270.16
2022-11-16T04:01:51.415Z,99273.47
2022-11-16T04:04:38.931Z,99271.88
2022-11-16T04:07:36.041Z,99263.38
2022-11-16T04:10:21.962Z,99261.66
2022-11-16T04:13:08.189Z,99265.00
2022-11-16T04:15:53.778Z,99256.34
2022-11-16T04:18:40.794Z,99254.53
2022-11-16T04:21:37.921Z,99254.53
2022-11-16T04:24:16.069Z,99247.63
2022-11-16T04:27:05.115Z,99250.31
2022-11-16T04:29:35.141Z,99259.75
2022-11-16T04:32:21.600Z,99257.81
2022-11-16T04:35:07.951Z,99238.81
2022-11-16T04:37:50.293Z,99228.28
2022-11-16T04:40:26.446Z,99224.00
2022-11-16T04:42:56.061Z,99225.06
2022-11-16T04:45:43.458Z,99230.34
2022-11-16T04:48:16.156Z,99223.44
2022-11-16T04:50:45.264Z,99229.59
2022-11-16T04:53:15.858Z,99225.22
2022-11-16T04:55:52.238Z,99224.41
2022-11-16T04:58:23.352Z,99212.31
2022-11-16T05:00:51.968Z,99208.75
2022-11-16T05:03:22.414Z,99207.84
2022-11-16T05:05:52.301Z,99211.06
2022-11-16T05:08:22.092Z,99211.00
2022-11-16T05:10:52.429Z,99201.41
2022-11-16T05:13:21.639Z,99209.28
2022-11-16T05:15:52.898Z,99214.63
2022-11-16T05:18:21.421Z,99211.09
2022-11-16T05:21:00.892Z,99210.25
2022-11-16T05:23:51.465Z,99223.09
2022-11-16T05:26:23.104Z,99231.00
2022-11-16T05:28:52.966Z,99225.84
2022-11-16T05:31:22.660Z,99221.56
2022-11-16T05:33:51.571Z,99221.75
2022-11-16T05:36:21.656Z,99218.34
2022-11-16T05:38:56.199Z,99216.75
2022-11-16T05:41:29.237Z,99218.47
2022-11-16T05:44:00.175Z,99219.22
2022-11-16T05:46:28.813Z,99217.38
2022-11-16T05:49:01.632Z,99226.97
2022-11-16T05:51:30.665Z,99231.28
2022-11-16T05:54:02.454Z,99240.84
2022-11-16T05:56:31.668Z,99233.91
2022-11-16T05:59:01.059Z,99242.66
2022-11-16T06:01:29.519Z,99247.97
2022-11-16T06:04:01.380Z,99239.41
2022-11-16T06:06:31.872Z,99236.78
2022-11-16T06:09:02.550Z,99248.94
2022-11-16T06:11:36.013Z,99243.72
2022-11-16T06:14:06.320Z,99240.97
2022-11-16T06:16:36.715Z,99242.56
2022-11-16T06:19:08.953Z,99233.94
2022-11-16T06:21:38.389Z,99230.44
2022-11-16T06:24:13.773Z,99232.16
2022-11-16T06:26:43.443Z,99221.75
2022-11-16T06:29:12.154Z,99226.03
2022-11-16T06:31:41.896Z,99216.50
2022-11-16T06:34:11.023Z,99225.84
2022-11-16T06:36:40.785Z,99225.69
2022-11-16T06:39:11.436Z,99220.50
2022-11-16T06:41:42.163Z,99215.22
2022-11-16T06:44:13.315Z,99216.06
2022-11-16T06:46:51.306Z,99226.47
2022-11-16T06:49:20.251Z,99228.19
2022-11-16T06:51:51.112Z,99231.81
2022-11-16T06:54:21.146Z,99223.19
2022-11-16T06:56:51.331Z,99222.28
2022-11-16T06:59:20.353Z,99224.78
2022-11-16T07:01:49.360Z,99229.13
2022-11-16T07:04:19.838Z,99226.34
2022-11-16T07:06:54.866Z,99225.38
2022-11-16T07:09:23.993Z,99210.75
2022-11-16T07:11:55.418Z,99206.50
2022-11-16T07:14:25.624Z,99213.16
2022-11-16T07:16:59.333Z,99208.72
2022-11-16T07:19:30.256Z,99216.63
2022-11-16T07:22:01.402Z,99206.97
2022-11-16T07:24:31.267Z,99210.28
2022-11-16T07:27:01.255Z,99206.88
2022-11-16T07:29:35.286Z,99208.66
2022-11-16T07:32:20.398Z,99194.78
2022-11-16T07:35:00.347Z,99196.47
2022-11-16T07:37:30.071Z,99191.97
2022-11-16T07:39:59.829Z,99194.53
2022-11-16T07:42:31.289Z,99196.34
2022-11-16T07:45:22.899Z,99189.47
2022-11-16T07:47:58.651Z,99188.59
2022-11-16T07:50:48.107Z,99185.09
2022-11-16T07:53:18.400Z,99189.31
2022-11-16T07:55:53.523Z,99194.53
2022-11-16T07:58:25.575Z,99199.72
2022-11-16T08:00:56.323Z,99191.16
2022-11-16T08:03:26.093Z,99180.84
2022-11-16T08:06:01.019Z,99194.66
2022-11-16T08:08:31.508Z,99188.59
2022-11-16T08:11:02.178Z,99191.22
2022-11-16T08:13:34.385Z,99185.94
2022-11-16T08:16:05.888Z,99177.28
2022-11-16T08:18:37.096Z,99179.94
2022-11-16T08:21:07.818Z,99184.38
2022-11-16T08:23:37.643Z,99172.28
2022-11-16T08:26:09.469Z,99183.47
2022-11-16T08:28:42.092Z,99184.44
2022-11-16T08:31:12.584Z,99181.13
2022-11-16T08:33:43.288Z,99186.31
2022-11-16T08:36:17.702Z,99193.31
2022-11-16T08:38:49.661Z,99205.66
2022-11-16T08:41:21.448Z,99204.22
2022-11-16T08:43:54.159Z,99206.88
2022-11-16T08:46:24.327Z,99195.59
2022-11-16T08:49:01.980Z,99189.53
2022-11-16T08:51:30.939Z,99199.22
2022-11-16T08:54:06.451Z,99215.69
2022-11-16T08:56:39.190Z,99217.53
2022-11-16T08:59:09.972Z,99232.16
2022-11-16T09:01:43.235Z,99225.22
2022-11-16T09:04:13.236Z,99221.75
2022-11-16T09:06:42.023Z,99220.84
2022-11-16T09:09:10.581Z,99226.72
2022-11-16T09:11:40.294Z,99224.88
2022-11-16T09:14:10.472Z,99231.81
2022-11-16T09:16:39.219Z,99223.09
2022-11-16T09:19:08.233Z,99222.13
2022-11-16T09:21:37.873Z,99220.38
2022-11-16T09:24:06.776Z,99209.06
2022-11-16T09:26:35.323Z,99210.63
2022-11-16T09:29:04.875Z,99200.16
2022-11-16T09:31:37.411Z,99197.44
2022-11-16T09:34:06.979Z,99191.38
2022-11-16T09:36:36.359Z,99193.81
2022-11-16T09:42:20.483Z,99187.84
2022-11-16T09:45:06.494Z,99183.50
2022-11-16T09:47:46.506Z,99182.81
2022-11-16T09:50:29.328Z,99176.81
2022-11-16T09:53:04.259Z,99181.88
2022-11-16T09:55:37.351Z,99183.56
2022-11-16T09:58:15.091Z,99171.53
2022-11-16T10:00:48.822Z,99169.84
2022-11-16T10:03:19.461Z,99168.88
2022-11-16T10:05:57.417Z,99172.41
2022-11-16T10:08:37.314Z,99168.88
2022-11-16T10:11:25.262Z,99160.00
2022-11-16T10:14:06.462Z,99166.09
2022-11-16T10:16:42.053Z,99156.69
2022-11-16T10:19:22.600Z,99153.81
2022-11-16T10:21:58.401Z,99151.22
2022-11-16T10:24:44.925Z,99157.19
2022-11-16T10:27:51.694Z,99156.31
2022-11-16T10:30:22.672Z,99148.50
2022-11-16T10:32:57.637Z,99147.59
2022-11-16T10:35:32.418Z,99147.53
2022-11-16T10:38:04.278Z,99146.53
2022-11-16T10:40:40.136Z,99145.41
2022-11-16T10:43:15.127Z,99145.47
2022-11-16T10:45:52.130Z,99144.53
2022-11-16T10:48:37.364Z,99148.81
2022-11-16T10:51:09.527Z,99147.91
2022-11-16T10:53:39.887Z,99142.75
2022-11-16T10:56:17.600Z,99141.97
2022-11-16T10:59:00.524Z,99149.91
2022-11-16T11:01:31.789Z,99150.88
2022-11-16T11:04:15.022Z,99144.06
2022-11-16T11:06:45.846Z,99148.44
2022-11-16T11:09:25.500Z,99145.09
2022-11-16T11:12:32.010Z,99133.91
2022-11-16T11:15:08.325Z,99145.34
2022-11-16T11:17:38.283Z,99142.75
2022-11-16T11:20:09.283Z,99140.16
2022-11-16T11:22:51.695Z,99142.75
2022-11-16T11:25:23.429Z,99138.25
2022-11-16T11:27:53.887Z,99140.88
2022-11-16T11:30:23.864Z,99140.91
2022-11-16T11:32:53.760Z,99127.16
2022-11-16T11:35:28.394Z,99131.38
2022-11-16T11:38:08.007Z,99126.34
2022-11-16T11:40:39.063Z,99129.81
2022-11-16T11:43:22.581Z,99130.59
2022-11-16T11:45:56.952Z,99124.53
2022-11-16T11:48:49.772Z,99120.97
2022-11-16T11:51:25.445Z,99128.00
2022-11-16T11:53:58.360Z,99120.19
2022-11-16T11:56:30.616Z,99124.66
2022-11-16T11:59:01.384Z,99122.19
2022-11-16T12:01:53.132Z,99115.44
2022-11-16T12:05:06.337Z,99121.41
2022-11-16T12:07:57.878Z,99111.19
2022-11-16T12:10:37.837Z,99112.81
2022-11-16T12:13:26.437Z,99105.06
2022-11-16T12:16:08.216Z,99106.81
2022-11-16T12:18:59.145Z,99104.41
2022-11-16T12:21:42.722Z,99103.72
2022-11-16T12:24:44.012Z,99100.31
2022-11-16T12:27:37.094Z,99088.28
2022-11-16T12:30:17.138Z,99102.13
2022-11-16T12:33:24.438Z,99109.13
2022-11-16T12:36:09.992Z,99108.34
2022-11-16T12:38:58.220Z,99100.66
2022-11-16T12:41:59.058Z,99102.50
2022-11-16T12:45:12.205Z,99105.91
2022-11-16T12:48:15.707Z,99112.16
2022-11-16T12:51:05.580Z,99108.00
2022-11-16T12:54:09.189Z,99102.19
2022-11-16T12:56:49.262Z,99105.31
2022-11-16T12:59:44.339Z,99105.97
2022-11-16T13:02:26.274Z,99101.69
2022-11-16T13:05:01.570Z,99101.59
2022-11-16T13:07:39.148Z,99098.88
2022-11-16T13:10:17.603Z,99091.84
2022-11-16T13:12:55.669Z,99108.34
2022-11-16T13:15:37.258Z,99102.13
2022-11-16T13:18:09.111Z,99105.63
2022-11-16T13:20:47.746Z,99106.53
2022-11-16T13:23:23.177Z,99099.69
2022-11-16T13:25:58.013Z,99110.97
2022-11-16T13:28:35.703Z,99103.94
2022-11-16T13:31:14.350Z,99110.81
2022-11-16T13:33:51.048Z,99103.88
2022-11-16T13:36:43.841Z,99104.72
2022-11-16T13:39:21.544Z,99099.59
2022-11-16T13:41:53.454Z,99097.81
2022-11-16T13:44:30.897Z,99092.69
2022-11-16T13:47:05.405Z,99109.13
2022-11-16T13:49:38.151Z,99101.38
2022-11-16T13:52:23.226Z,99102.19
2022-11-16T13:54:55.416Z,99103.16
2022-11-16T13:57:26.340Z,99107.34
2022-11-16T14:00:10.385Z,99102.06
2022-11-16T14:02:42.199Z,99102.25
2022-11-16T14:05:17.805Z,99104.91
2022-11-16T14:07:50.114Z,99103.09
2022-11-16T14:10:54.250Z,99113.41
2022-11-16T14:13:40.463Z,99108.22
2022-11-16T14:16:54.899Z,99106.66
2022-11-16T14:19:56.362Z,99105.75
2022-11-16T14:22:53.731Z,99110.97
2022-11-16T14:25:38.819Z,99114.59
2022-11-16T14:28:29.325Z,99108.56
2022-11-16T14:31:11.166Z,99113.97
2022-11-16T14:33:40.485Z,99102.72
2022-11-16T14:36:13.234Z,99113.88
2022-11-16T14:38:44.171Z,99113.97
2022-11-16T14:41:20.318Z,99116.78
2022-11-16T14:43:51.947Z,99109.84
2022-11-16T14:46:24.022Z,99103.94
2022-11-16T14:48:55.940Z,99108.41
2022-11-16T14:51:28.602Z,99109.25
2022-11-16T14:54:02.210Z,99111.94
2022-11-16T14:56:31.017Z,99115.31
2022-11-16T14:59:02.988Z,99118.69
2022-11-16T15:01:32.974Z,99111.78
2022-11-16T15:04:05.232Z,99110.09
2022-11-16T15:06:42.575Z,99110.22
2022-11-16T15:09:18.272Z,99106.84
2022-11-16T15:12:06.922Z,99105.94
2022-11-16T15:14:39.756Z,99112.09
2022-11-16T15:17:08.933Z,99103.63
2022-11-16T15:19:38.132Z,99096.69
2022-11-16T15:22:19.329Z,99096.81
2022-11-16T15:24:56.066Z,99101.13
2022-11-16T15:27:38.138Z,99106.34
2022-11-16T15:30:17.063Z,99106.28
2022-11-16T15:32:48.115Z,99107.00
2022-11-16T15:35:20.432Z,99108.63
2022-11-16T15:38:01.018Z,99106.13
2022-11-16T15:40:33.786Z,99105.16
2022-11-16T15:43:05.274Z,99106.84
2022-11-16T15:45:35.830Z,99107.75
2022-11-16T15:48:05.442Z,99108.56
2022-11-16T15:50:34.485Z,99106.94
2022-11-16T15:53:04.524Z,99115.66
2022-11-16T15:55:37.877Z,99111.44
2022-11-16T15:58:14.681Z,99112.34
2022-11-16T16:00:47.884Z,99104.53
2022-11-16T16:03:23.098Z,99106.28
2022-11-16T16:05:53.219Z,99107.19
2022-11-16T16:08:31.887Z,99110.50
2022-11-16T16:11:03.296Z,99104.41
2022-11-16T16:13:34.518Z,99105.38
2022-11-16T16:16:36.563Z,99110.81
2022-11-16T16:19:09.914Z,99113.47
2022-11-16T16:21:44.458Z,99116.13
2022-11-16T16:24:36.430Z,99111.06
2022-11-16T16:27:11.636Z,99122.22
2022-11-16T16:29:40.511Z,99116.25
2022-11-16T16:32:14.623Z,99123.19
2022-11-16T16:34:45.338Z,99125.88
2022-11-16T16:37:14.055Z,99133.69
2022-11-16T16:39:46.051Z,99124.19
2022-11-16T16:42:15.520Z,99125.97
2022-11-16T16:44:45.728Z,99126.13
2022-11-16T16:47:15.786Z,99119.31
2022-11-16T16:49:44.613Z,99121.84
2022-11-16T16:52:14.175Z,99120.22
2022-11-16T16:54:44.758Z,99123.59
2022-11-16T16:57:16.867Z,99132.34
2022-11-16T16:59:48.540Z,99135.78
2022-11-16T17:02:17.917Z,99128.00
2022-11-16T17:04:48.610Z,99127.94
2022-11-16T17:07:17.496Z,99123.59
2022-11-16T17:09:48.086Z,99118.34
2022-11-16T17:12:16.531Z,99118.38
2022-11-16T17:14:55.813Z,99118.53
2022-11-16T17:17:25.573Z,99122.00
2022-11-16T17:19:54.716Z,99127.19
2022-11-16T17:22:23.914Z,99123.81
2022-11-16T17:24:54.516Z,99122.25
2022-11-16T17:27:23.377Z,99122.34
2022-11-16T17:29:52.155Z,99127.47
2022-11-16T17:32:20.980Z,99128.34
2022-11-16T17:34:50.244Z,99125.41
2022-11-16T17:37:20.308Z,99127.31
2022-11-16T17:39:49.332Z,99120.44
2022-11-16T17:42:19.531Z,99118.81
2022-11-16T17:44:48.605Z,99124.06
2022-11-16T17:47:17.569Z,99120.66
2022-11-16T17:49:46.312Z,99115.47
2022-11-16T17:52:15.000Z,99130.31
2022-11-16T17:54:44.010Z,99129.59
2022-11-16T17:57:12.823Z,99125.31
2022-11-16T17:59:42.819Z,99114.78
2022-11-16T18:02:12.206Z,99121.75
2022-11-16T18:04:42.274Z,99121.84
2022-11-16T18:07:12.283Z,99127.91
2022-11-16T18:09:40.733Z,99133.09
2022-11-16T18:12:09.211Z,99128.81
2022-11-16T18:14:37.708Z,99123.63
2022-11-16T18:17:08.134Z,99132.28
2022-11-16T18:19:37.124Z,99120.22
2022-11-16T18:22:06.479Z,99128.91
2022-11-16T18:24:35.279Z,99127.28
2022-11-16T18:27:04.501Z,99117.72
2022-11-16T18:29:33.886Z,99125.50
2022-11-16T18:32:03.195Z,99121.16
2022-11-16T18:34:33.890Z,99129.78
2022-11-16T18:37:04.802Z,99124.59
2022-11-16T18:39:33.623Z,99122.84
2022-11-16T18:42:02.814Z,99119.41
2022-11-16T18:44:31.506Z,99123.88
2022-11-16T18:47:00.525Z,99122.97
2022-11-16T18:49:29.481Z,99130.69
2022-11-16T18:52:01.074Z,99125.63
2022-11-16T18:54:30.640Z,99127.38
2022-11-16T18:56:59.097Z,99135.13
2022-11-16T18:59:28.133Z,99131.72
2022-11-16T19:01:56.769Z,99134.31
2022-11-16T19:04:27.105Z,99138.72
2022-11-16T19:06:56.521Z,99135.22
2022-11-16T19:09:27.750Z,99136.03
2022-11-16T19:11:56.481Z,99130.75
2022-11-16T19:14:25.097Z,99116.25
2022-11-16T19:16:57.315Z,99125.84
2022-11-16T19:19:27.893Z,99118.84
2022-11-16T19:21:57.344Z,99130.03
2022-11-16T19:24:27.532Z,99117.94
2022-11-16T19:26:56.436Z,99121.44
2022-11-16T19:29:25.413Z,99123.19
2022-11-16T19:31:54.098Z,99123.13
2022-11-16T19:34:22.695Z,99121.44
2022-11-16T19:36:51.611Z,99125.78
2022-11-16T19:39:20.315Z,99127.53
2022-11-16T19:41:50.393Z,99126.75
2022-11-16T19:44:19.008Z,99131.84
2022-11-16T19:46:47.690Z,99133.63
2022-11-16T19:49:20.165Z,99142.28
2022-11-16T19:51:49.724Z,99144.81
2022-11-16T19:54:18.830Z,99149.88
2022-11-16T19:56:53.586Z,99148.09
2022-11-16T19:59:26.233Z,99142.91
2022-11-16T20:01:59.937Z,99149.00
2022-11-16T20:04:35.885Z,99149.88
2022-11-16T20:07:09.229Z,99142.91
2022-11-16T20:09:40.563Z,99148.19
2022-11-16T20:12:10.083Z,99154.28
2022-11-16T20:14:41.474Z,99156.03
2022-11-16T20:17:11.917Z,99149.06
2022-11-16T20:19:40.932Z,99143.91
2022-11-16T20:22:10.068Z,99151.75
2022-11-16T20:24:40.338Z,99146.56
2022-11-16T20:27:09.662Z,99142.31
2022-11-16T20:29:40.891Z,99158.91
2022-11-16T20:32:11.435Z,99146.88
2022-11-16T20:34:40.294Z,99150.38
2022-11-16T20:37:10.379Z,99152.94
2022-11-16T20:39:39.915Z,99161.59
2022-11-16T20:42:08.624Z,99151.22
2022-11-16T20:44:37.129Z,99155.63
2022-11-16T20:47:07.272Z,99155.63
2022-11-16T20:49:35.808Z,99162.50
2022-11-16T20:52:04.970Z,99154.63
2022-11-16T20:54:34.832Z,99156.41
2022-11-16T20:57:05.012Z,99149.56
2022-11-16T20:59:34.366Z,99151.34
2022-11-16T21:02:03.193Z,99147.09
2022-11-16T21:07:35.964Z,99149.75
2022-11-16T21:10:19.885Z,99150.66
2022-11-16T21:13:05.893Z,99144.59
2022-11-16T21:15:34.804Z,99141.28
2022-11-16T21:18:04.043Z,99141.28
2022-11-16T21:20:34.555Z,99146.56
2022-11-16T21:23:03.755Z,99138.03
2022-11-16T21:25:32.519Z,99144.97
2022-11-16T21:28:01.209Z,99146.69
2022-11-16T21:30:29.750Z,99145.78
2022-11-16T21:32:58.216Z,99143.19
2022-11-16T21:35:27.874Z,99139.78
2022-11-16T21:37:57.967Z,99140.63
2022-11-16T21:40:27.013Z,99139.88
2022-11-16T21:42:56.763Z,99130.47
2022-11-16T21:45:25.515Z,99133.00
2022-11-16T21:47:54.596Z,99134.78
2022-11-16T21:50:31.743Z,99128.66
2022-11-16T21:53:02.604Z,99130.47
2022-11-16T21:55:31.217Z,99137.41
2022-11-16T21:57:59.673Z,99138.31
2022-11-16T22:00:28.730Z,99145.19
2022-11-16T22:02:57.369Z,99140.88
2022-11-16T22:05:43.457Z,99138.38
2022-11-16T22:08:13.857Z,99144.47
2022-11-16T22:10:43.326Z,99146.06
2022-11-16T22:13:12.060Z,99145.28
2022-11-16T22:15:44.581Z,99143.59
2022-11-16T22:18:14.362Z,99144.41
2022-11-16T22:20:49.194Z,99145.28
2022-11-16T22:23:23.085Z,99146.88
2022-11-16T22:25:52.882Z,99136.56
2022-11-16T22:28:22.016Z,99138.38
2022-11-16T22:30:52.274Z,99134.97
2022-11-16T22:33:22.193Z,99145.41
2022-11-16T22:35:50.745Z,99142.88
2022-11-16T22:38:20.833Z,99143.69
2022-11-16T22:40:53.056Z,99148.06
2022-11-16T22:43:24.145Z,99148.06
2022-11-16T22:45:52.761Z,99148.19
2022-11-16T22:48:21.345Z,99155.16
2022-11-16T22:50:49.968Z,99151.59
2022-11-16T22:53:20.391Z,99152.50
2022-11-16T22:55:49.242Z,99150.78
2022-11-16T22:58:18.082Z,99153.38
2022-11-16T23:00:46.537Z,99159.44
2022-11-16T23:03:15.902Z,99166.34
2022-11-16T23:05:44.498Z,99152.59
2022-11-16T23:08:13.147Z,99155.25
2022-11-16T23:10:57.489Z,99152.69
2022-11-16T23:13:44.132Z,99147.50
2022-11-16T23:16:13.074Z,99144.09
2022-11-16T23:18:42.129Z,99146.72
2022-11-16T23:21:28.260Z,99134.56
2022-11-16T23:24:19.741Z,99141.63
2022-11-16T23:27:08.847Z,99127.97
2022-11-16T23:29:38.031Z,99136.59
2022-11-16T23:32:07.269Z,99142.63
2022-11-16T23:34:36.200Z,99131.38
2022-11-16T23:37:05.578Z,99134.78
2022-11-16T23:39:35.378Z,99138.28
2022-11-16T23:42:23.623Z,99141.75
2022-11-16T23:44:52.363Z,99136.59
2022-11-16T23:47:21.011Z,99134.06
2022-11-16T23:49:49.877Z,99131.50
2022-11-16T23:52:20.859Z,99137.56
2022-11-16T23:54:49.534Z,99135.78
2022-11-16T23:57:19.717Z,99132.38
2022-11-16T23:59:48.354Z,99137.66
